Time;durP1;ratioP1;P1;durP2;ratioP2;P2;SDS_P1;SDS_P2;PMS_P1;PMS_P2;Temp;Humidity;BMP_temperature;BMP_pressure;BME280_temperature;BME280_humidity;BME280_pressure;Samples;Min_cycle;Max_cycle;Signal;HPM_P1;HPM_P2
2021/12/20 00:01:38;;;;;;;5.80;4.00;;;5.40;99.90;;;6.10;100.00;99036.22;5038492;28;20463;-77
2021/12/20 00:04:08;;;;;;;5.00;3.53;;;5.40;99.90;;;6.10;100.00;99020.66;5042640;28;20966;-77
2021/12/20 00:06:38;;;;;;;4.43;3.20;;;5.40;99.90;;;6.11;100.00;99025.69;5034880;28;21036;-77
2021/12/20 00:09:09;;;;;;;5.17;4.03;;;5.40;99.90;;;6.15;100.00;99021.88;5042555;28;20489;-77
2021/12/20 00:11:38;;;;;;;3.63;2.83;;;5.40;99.90;;;6.17;100.00;99025.19;5042025;28;20958;-77
2021/12/20 00:14:08;;;;;;;4.90;3.70;;;5.40;99.90;;;6.17;100.00;99030.38;5044018;28;20492;-77
2021/12/20 00:16:37;;;;;;;5.53;3.20;;;5.50;99.90;;;6.17;100.00;99021.75;5047809;28;20526;-77
2021/12/20 00:19:09;;;;;;;5.33;3.63;;;5.60;99.90;;;6.18;100.00;99016.41;5040840;28;20864;-77
2021/12/20 00:21:38;;;;;;;6.07;4.03;;;5.60;99.90;;;6.19;100.00;99012.88;5039145;28;20457;-77
2021/12/20 00:24:11;;;;;;;4.50;3.20;;;5.60;99.90;;;6.15;100.00;99006.28;5041429;28;20457;-77
2021/12/20 00:26:41;;;;;;;4.57;3.50;;;5.50;99.90;;;6.19;100.00;99007.66;5044545;28;20483;-77
2021/12/20 00:29:11;;;;;;;6.03;4.20;;;5.50;99.90;;;6.19;100.00;98997.28;5045257;28;20457;-77
2021/12/20 00:31:41;;;;;;;13.03;3.57;;;5.40;99.90;;;6.19;100.00;99007.66;5043391;28;20460;-77
2021/12/20 00:34:10;;;;;;;5.03;3.73;;;5.40;99.90;;;6.20;100.00;99004.13;5047486;28;20504;-77
2021/12/20 00:36:39;;;;;;;3.87;3.30;;;5.50;99.90;;;6.20;100.00;98990.31;5036038;28;20465;-77
2021/12/20 00:41:57;;;;;;;4.00;3.17;;;5.50;99.90;;;6.22;100.00;98999.59;5024548;28;20467;-77
2021/12/20 00:44:27;;;;;;;6.63;2.90;;;5.50;99.90;;;6.22;100.00;98991.81;5043675;28;20461;-77
2021/12/20 00:46:57;;;;;;;5.40;3.10;;;5.50;99.90;;;6.23;100.00;98993.47;5048559;28;20523;-77
2021/12/20 00:49:28;;;;;;;4.80;3.60;;;5.60;99.90;;;6.23;100.00;98993.47;5045297;28;20456;-77
2021/12/20 00:51:58;;;;;;;3.47;3.03;;;5.50;99.90;;;6.23;100.00;98985.69;5042754;28;20457;-77
2021/12/20 00:54:29;;;;;;;6.00;3.80;;;5.50;99.90;;;6.24;100.00;98989.91;5046543;28;20513;-77
2021/12/20 00:56:59;;;;;;;7.63;3.70;;;5.50;99.90;;;6.23;100.00;98983.06;5045766;28;20453;-77
2021/12/20 00:59:30;;;;;;;4.80;3.57;;;5.60;99.90;;;6.18;100.00;98990.44;5042681;28;20565;-77
2021/12/20 01:02:00;;;;;;;4.23;3.53;;;5.50;99.90;;;6.17;100.00;98994.03;5047456;28;21523;-77
2021/12/20 01:04:30;;;;;;;4.53;3.87;;;5.50;99.90;;;6.19;100.00;98986.06;5048567;28;20540;-77
2021/12/20 01:07:01;;;;;;;4.17;3.57;;;5.40;99.90;;;6.23;100.00;98993.47;5044211;28;20462;-77
2021/12/20 01:09:32;;;;;;;4.90;3.90;;;5.50;99.90;;;6.21;100.00;98991.97;5046584;28;20504;-77
2021/12/20 01:12:05;;;;;;;5.20;4.17;;;5.40;99.90;;;6.21;100.00;98987.59;5046069;28;20640;-77
2021/12/20 01:14:37;;;;;;;5.40;3.73;;;5.40;99.90;;;6.24;100.00;98986.50;5035270;28;20509;-77
2021/12/20 01:17:07;;;;;;;6.00;4.00;;;5.50;99.90;;;6.24;100.00;98986.50;5042543;28;20467;-77
2021/12/20 01:19:40;;;;;;;7.00;3.50;;;5.50;99.90;;;6.24;100.00;98986.50;5044346;28;20465;-77
2021/12/20 01:22:10;;;;;;;4.20;3.47;;;5.50;99.90;;;6.25;100.00;98994.13;5041274;28;20551;-77
2021/12/20 01:24:41;;;;;;;6.67;3.97;;;5.50;99.90;;;6.26;100.00;98988.00;5043251;28;20464;-77
2021/12/20 01:27:12;;;;;;;5.87;4.07;;;5.60;99.90;;;6.27;100.00;98979.25;5046783;28;20457;-77
2021/12/20 01:29:42;;;;;;;5.70;4.47;;;5.60;99.90;;;6.28;100.00;98985.28;5048108;28;20510;-77
2021/12/20 01:32:12;;;;;;;5.63;4.10;;;5.60;99.90;;;6.28;100.00;98978.28;5039925;28;20467;-77
2021/12/20 01:34:43;;;;;;;5.80;3.40;;;5.70;99.90;;;6.30;100.00;98984.16;5045160;28;20500;-77
2021/12/20 01:37:13;;;;;;;7.10;4.20;;;5.60;99.90;;;6.28;100.00;98973.09;5044683;28;20452;-77
2021/12/20 01:39:43;;;;;;;6.53;3.43;;;5.50;99.90;;;6.26;100.00;98977.59;5048845;28;20515;-77
2021/12/20 01:42:18;;;;;;;5.80;3.50;;;5.50;99.90;;;6.25;100.00;98980.34;5046839;28;20469;-77
2021/12/20 01:44:50;;;;;;;4.10;3.23;;;5.40;99.90;;;6.25;100.00;98975.97;5040068;28;20519;-77
2021/12/20 01:47:20;;;;;;;5.57;3.70;;;5.50;99.90;;;6.27;100.00;98979.25;5038232;28;20863;-78
2021/12/20 01:49:58;;;;;;;5.80;3.90;;;5.50;99.90;;;6.29;100.00;98989.50;5048450;28;20552;-77
2021/12/20 01:52:39;;;;;;;4.30;3.30;;;5.50;99.90;;;6.27;100.00;98979.25;5049931;28;20464;-77
2021/12/20 01:55:13;;;;;;;10.87;4.40;;;5.50;99.90;;;6.26;100.00;98977.59;5044908;28;20496;-77
2021/12/20 01:57:44;;;;;;;4.33;3.40;;;5.50;99.90;;;6.25;100.00;98975.97;5050168;28;20445;-77
2021/12/20 02:00:19;;;;;;;4.77;4.33;;;5.40;99.90;;;6.23;100.00;98977.06;5050904;28;20520;-77
2021/12/20 02:02:53;;;;;;;8.83;4.20;;;5.40;99.90;;;6.25;100.00;98985.56;5047388;28;20453;-77
2021/12/20 02:05:27;;;;;;;6.60;3.90;;;5.50;99.90;;;6.27;100.00;98984.44;5051516;28;20475;-77
2021/12/20 02:08:01;;;;;;;4.47;3.30;;;5.50;99.90;;;6.27;100.00;98988.81;5044777;28;20550;-77
2021/12/20 02:10:34;;;;;;;6.90;3.80;;;5.40;99.90;;;6.25;100.00;98982.97;5048858;28;20948;-77
2021/12/20 02:13:03;;;;;;;3.93;3.30;;;5.50;99.90;;;6.21;100.00;98985.00;5043381;28;20465;-77
2021/12/20 02:15:33;;;;;;;10.33;3.83;;;5.40;99.90;;;6.23;100.00;98982.25;5041770;28;20485;-77
2021/12/20 02:18:04;;;;;;;3.90;3.40;;;5.50;99.90;;;6.23;100.00;98970.09;5049045;28;20554;-77
2021/12/20 02:20:38;;;;;;;4.10;2.70;;;5.60;99.90;;;6.22;100.00;98971.03;5048671;28;20456;-77
2021/12/20 02:23:10;;;;;;;7.70;3.97;;;5.50;99.90;;;6.19;100.00;98979.09;5043094;28;20518;-77
2021/12/20 02:25:39;;;;;;;6.17;3.30;;;5.50;99.90;;;6.21;100.00;98972.03;5039265;28;20535;-77
2021/12/20 02:28:13;;;;;;;3.40;3.10;;;5.60;99.90;;;6.24;100.00;98981.31;5041666;28;20552;-77
2021/12/20 02:30:54;;;;;;;4.83;3.77;;;5.60;99.90;;;6.22;100.00;98981.44;5044056;28;20457;-77
2021/12/20 02:39:04;;;;;;;9.00;3.57;;;5.40;99.90;;;6.19;100.00;98947.94;5045679;28;20836;-77
2021/12/20 02:41:35;;;;;;;5.63;3.47;;;5.40;99.90;;;6.19;100.00;98958.34;5044067;28;20480;-77
2021/12/20 02:44:11;;;;;;;6.27;3.80;;;5.40;99.90;;;6.19;100.00;98960.09;5045787;28;20866;-77
2021/12/20 02:46:50;;;;;;;4.73;2.80;;;5.50;99.90;;;6.19;100.00;98960.94;5037024;28;20541;-77
2021/12/20 02:49:25;;;;;;;6.97;3.80;;;5.50;99.90;;;6.20;100.00;98943.56;5045860;28;20868;-77
2021/12/20 02:52:02;;;;;;;7.03;3.80;;;5.50;99.90;;;6.19;100.00;98942.75;5045308;28;20708;-78
2021/12/20 02:54:32;;;;;;;3.80;2.70;;;5.40;99.90;;;6.17;100.00;98942.09;5045093;28;20929;-77
2021/12/20 02:57:02;;;;;;;6.13;3.80;;;5.30;99.90;;;6.14;100.00;98942.38;5045529;28;20461;-78
2021/12/20 02:59:32;;;;;;;3.70;3.20;;;5.30;99.90;;;6.13;100.00;98945.91;5042232;28;21651;-77
2021/12/20 03:02:07;;;;;;;4.13;3.07;;;5.40;99.90;;;6.15;100.00;98948.34;5046100;28;20961;-77
2021/12/20 03:04:36;;;;;;;3.87;3.27;;;5.30;99.90;;;6.15;100.00;98948.34;5046035;28;20522;-77
2021/12/20 03:07:14;;;;;;;4.13;3.00;;;5.30;99.90;;;6.16;100.00;98957.78;5036641;28;20489;-77
2021/12/20 03:09:50;;;;;;;5.57;3.80;;;5.30;99.90;;;6.13;100.00;98948.50;5043299;28;20492;-77
2021/12/20 03:12:22;;;;;;;4.97;3.50;;;5.30;99.90;;;6.15;100.00;98943.97;5044145;28;20822;-77
2021/12/20 03:14:56;;;;;;;4.97;3.57;;;5.30;99.90;;;6.11;100.00;98942.59;5045347;28;20503;-78
2021/12/20 03:17:26;;;;;;;4.53;3.40;;;5.30;99.90;;;6.10;100.00;98943.59;5048665;28;20498;-77
2021/12/20 03:19:57;;;;;;;5.60;3.30;;;5.30;99.90;;;6.10;100.00;98938.41;5039832;28;20449;-77
2021/12/20 03:22:30;;;;;;;8.90;3.90;;;5.20;99.90;;;6.11;100.00;98950.41;5044598;28;20548;-77
2021/12/20 03:25:01;;;;;;;5.73;3.73;;;5.30;99.90;;;6.12;100.00;98946.84;5046404;28;20453;-77
2021/12/20 03:27:31;;;;;;;4.30;3.90;;;5.30;99.90;;;6.12;100.00;98948.63;5041363;28;20977;-77
2021/12/20 03:30:01;;;;;;;6.30;3.23;;;5.20;99.90;;;6.12;100.00;98946.03;5043151;28;20449;-77
2021/12/20 03:32:31;;;;;;;8.37;4.50;;;5.30;99.90;;;6.07;100.00;98939.47;5047419;28;20949;-77
2021/12/20 03:35:02;;;;;;;5.63;3.40;;;5.20;99.90;;;6.06;100.00;98950.00;5042269;28;20482;-77
2021/12/20 03:37:32;;;;;;;6.57;3.87;;;5.20;99.90;;;6.06;100.00;98955.19;5044895;28;20477;-77
2021/12/20 03:40:01;;;;;;;4.43;3.27;;;5.30;99.90;;;6.08;100.00;98953.28;5047415;28;20457;-77
2021/12/20 03:42:31;;;;;;;3.70;3.20;;;5.30;99.90;;;6.07;100.00;98951.66;5043265;28;20515;-77
2021/12/20 03:45:03;;;;;;;5.13;3.70;;;5.30;99.90;;;6.08;100.00;98956.69;5043221;28;20820;-77
2021/12/20 03:47:33;;;;;;;3.40;3.00;;;5.20;99.90;;;6.06;100.00;98955.19;5035581;28;20462;-77
2021/12/20 03:50:03;;;;;;;3.90;2.90;;;5.20;99.90;;;6.03;100.00;98951.09;5044699;28;20571;-77
2021/12/20 03:52:38;;;;;;;4.00;3.60;;;5.20;99.90;;;6.03;100.00;98951.09;5042993;28;20452;-76
2021/12/20 03:55:11;;;;;;;5.60;3.77;;;5.20;99.90;;;6.05;100.00;98949.19;5039155;28;20515;-77
2021/12/20 03:57:42;;;;;;;5.00;3.83;;;5.20;99.90;;;6.03;100.00;98950.28;5046045;28;20473;-77
2021/12/20 04:00:17;;;;;;;5.43;3.97;;;5.10;99.90;;;6.05;100.00;98948.34;5044160;28;21063;-77
2021/12/20 04:02:49;;;;;;;4.00;3.60;;;5.20;99.90;;;6.03;100.00;98955.47;5043785;28;20794;-76
2021/12/20 04:05:19;;;;;;;7.60;3.50;;;5.20;99.90;;;6.03;100.00;98952.88;5043539;28;20477;-77
2021/12/20 04:07:49;;;;;;;10.23;3.90;;;5.20;99.90;;;6.04;100.00;98944.94;5045311;28;20460;-77
2021/12/20 04:10:20;;;;;;;6.70;4.07;;;5.20;99.90;;;6.08;100.00;98948.06;5044831;28;20910;-77
2021/12/20 04:12:51;;;;;;;5.67;3.53;;;5.30;99.90;;;6.05;100.00;98943.97;5047583;28;20992;-77
2021/12/20 04:15:22;;;;;;;5.07;3.73;;;5.20;99.90;;;6.04;100.00;98957.09;5051343;28;20504;-77
2021/12/20 04:17:52;;;;;;;4.73;3.67;;;5.20;99.90;;;6.02;100.00;98946.03;5050318;28;20469;-77
2021/12/20 04:20:24;;;;;;;5.50;3.73;;;5.40;99.90;;;6.02;100.00;98957.25;5049193;28;20556;-77
2021/12/20 04:22:56;;;;;;;5.63;3.80;;;5.30;99.90;;;6.03;100.00;98960.66;5039819;28;21087;-77
2021/12/20 04:25:27;;;;;;;4.00;3.57;;;5.30;99.90;;;6.03;100.00;98955.47;5046063;28;20458;-77
2021/12/20 04:27:56;;;;;;;5.67;3.43;;;5.20;99.90;;;6.03;100.00;98945.91;5045616;28;20454;-76
2021/12/20 04:30:31;;;;;;;8.33;4.50;;;5.20;99.90;;;6.06;100.00;98944.81;5046294;28;20469;-77
2021/12/20 04:33:01;;;;;;;6.70;4.63;;;5.30;99.90;;;6.04;100.00;98942.34;5048447;28;20851;-77
2021/12/20 04:35:31;;;;;;;6.97;4.30;;;5.30;99.90;;;6.06;100.00;98952.59;5045845;28;20488;-77
2021/12/20 04:38:03;;;;;;;7.40;4.50;;;5.30;99.90;;;6.06;100.00;98952.59;5046280;28;20820;-77
2021/12/20 04:40:33;;;;;;;6.27;4.70;;;5.30;99.90;;;6.06;100.00;98950.00;5046237;28;20460;-79
2021/12/20 04:43:05;;;;;;;7.60;5.50;;;5.30;99.90;;;6.06;100.00;98934.44;5044915;28;20507;-77
2021/12/20 04:45:36;;;;;;;8.20;5.73;;;5.30;99.90;;;6.09;100.00;98947.13;5039860;28;20461;-77
2021/12/20 04:48:09;;;;;;;12.00;5.23;;;5.30;99.90;;;6.08;100.00;98937.69;5047148;28;20900;-79
2021/12/20 04:50:39;;;;;;;23.33;5.00;;;5.30;99.90;;;6.06;100.00;98956.03;5040486;28;20449;-77
2021/12/20 04:53:11;;;;;;;12.17;6.00;;;5.30;99.90;;;6.06;100.00;98950.81;5049531;28;20471;-77
2021/12/20 04:55:43;;;;;;;8.93;4.70;;;5.30;99.90;;;6.10;100.00;98955.75;5044604;28;20507;-77
2021/12/20 04:58:13;;;;;;;6.93;4.87;;;5.30;99.90;;;6.12;100.00;98953.81;5048049;28;20488;-77
2021/12/20 05:00:44;;;;;;;8.30;4.80;;;5.30;99.90;;;6.12;100.00;98943.44;5011218;28;20509;-77
2021/12/20 05:03:16;;;;;;;5.93;4.30;;;5.30;99.90;;;6.12;100.00;98949.44;5011162;28;20458;-77
2021/12/20 05:05:47;;;;;;;9.00;4.60;;;5.40;99.90;;;6.11;100.00;98952.19;5011229;28;20447;-78
2021/12/20 05:08:19;;;;;;;5.63;4.57;;;5.40;99.90;;;6.10;100.00;98951.38;5003005;28;20502;-77
2021/12/20 05:10:50;;;;;;;6.80;4.47;;;5.30;99.90;;;6.10;100.00;98951.38;5005824;28;20451;-76
2021/12/20 05:13:19;;;;;;;13.60;4.60;;;5.30;99.90;;;6.14;100.00;98957.13;5007252;28;20518;-77
2021/12/20 05:15:51;;;;;;;11.13;4.93;;;5.30;99.90;;;6.13;100.00;98958.06;5007425;28;20512;-77
2021/12/20 05:18:21;;;;;;;9.73;4.40;;;5.40;99.90;;;6.11;100.00;98953.00;5002905;28;20463;-77
2021/12/20 05:20:50;;;;;;;32.83;14.43;;;5.30;99.90;;;6.13;100.00;98955.47;5008163;28;20859;-77
2021/12/20 05:23:22;;;;;;;13.73;5.97;;;5.40;99.90;;;6.10;100.00;98946.19;5006971;28;20904;-77
2021/12/20 05:25:51;;;;;;;5.57;3.70;;;5.40;99.90;;;6.13;100.00;98952.88;5011092;28;20451;-77
2021/12/20 05:28:22;;;;;;;5.20;3.60;;;5.40;99.90;;;6.12;100.00;98954.63;5010405;28;20538;-77
2021/12/20 05:30:52;;;;;;;6.23;3.43;;;5.40;99.90;;;6.12;100.00;98954.63;5006403;28;20541;-77
2021/12/20 05:33:24;;;;;;;9.10;4.17;;;5.40;99.90;;;6.11;100.00;98953.00;5009505;28;20466;-77
2021/12/20 05:35:55;;;;;;;7.30;3.50;;;5.30;99.90;;;6.10;100.00;98951.38;5009379;28;20546;-77
2021/12/20 05:38:46;;;;;;;9.40;4.10;;;5.30;99.90;;;6.12;100.00;98965.03;5003667;28;20449;-77
2021/12/20 05:41:16;;;;;;;8.70;3.60;;;5.50;99.90;;;6.08;100.00;98966.25;5003744;28;20959;-76
2021/12/20 05:43:46;;;;;;;46.50;19.60;;;5.40;99.90;;;6.07;100.00;98952.44;5011196;28;20461;-76
2021/12/20 05:46:16;;;;;;;6.70;3.43;;;5.40;99.90;;;6.06;100.00;98958.63;5005586;28;20495;-76
2021/12/20 05:48:46;;;;;;;5.97;2.77;;;5.50;99.90;;;6.02;100.00;98965.03;5010737;28;20468;-76
2021/12/20 05:51:15;;;;;;;9.57;3.13;;;5.40;99.90;;;6.03;100.00;98965.84;5008123;28;20465;-76
2021/12/20 05:53:46;;;;;;;10.73;2.73;;;5.40;99.90;;;6.06;100.00;98976.78;5002511;28;20960;-76
2021/12/20 05:56:15;;;;;;;10.27;2.87;;;5.40;99.90;;;6.07;100.00;98970.63;5007938;28;20494;-76
2021/12/20 05:58:46;;;;;;;17.23;3.80;;;5.40;99.90;;;6.08;100.00;98984.41;5016133;28;20496;-76
2021/12/20 06:01:17;;;;;;;8.83;3.20;;;5.30;99.90;;;6.10;100.00;98976.50;5048156;28;21056;-76
2021/12/20 06:03:47;;;;;;;7.30;3.00;;;5.30;99.90;;;6.09;100.00;98980.88;5041368;28;20458;-76
2021/12/20 06:06:17;;;;;;;13.27;3.00;;;5.40;99.90;;;6.09;100.00;98980.88;5044408;28;21016;-76
2021/12/20 06:08:48;;;;;;;8.33;2.77;;;5.30;99.90;;;6.08;100.00;98984.41;5037176;28;20482;-76
2021/12/20 06:11:18;;;;;;;16.07;4.27;;;5.40;99.90;;;6.07;100.00;98985.41;5046851;28;21037;-76
2021/12/20 06:13:48;;;;;;;10.23;3.07;;;5.40;99.90;;;6.08;100.00;98984.41;5046606;28;20445;-76
2021/12/20 06:16:17;;;;;;;8.77;2.90;;;5.30;99.90;;;6.10;100.00;98982.53;5046458;28;20522;-76
2021/12/20 06:18:47;;;;;;;9.47;2.60;;;5.30;99.90;;;6.04;100.00;98990.84;5045316;28;20889;-77
2021/12/20 06:21:17;;;;;;;7.93;3.90;;;5.30;99.90;;;6.03;100.00;98992.63;5051075;28;20532;-77
2021/12/20 06:23:48;;;;;;;8.93;2.90;;;5.20;99.90;;;6.06;100.00;98991.53;5048915;28;20451;-78
2021/12/20 06:26:23;;;;;;;12.50;3.27;;;5.30;99.90;;;6.07;100.00;98993.19;5056053;28;20461;-77
2021/12/20 06:28:52;;;;;;;6.63;2.67;;;5.20;99.90;;;6.07;100.00;98993.19;5051525;28;20455;-78
2021/12/20 06:31:24;;;;;;;9.00;3.00;;;5.30;99.90;;;6.08;100.00;98990.44;5051363;28;21044;-77
2021/12/20 06:33:55;;;;;;;11.53;3.33;;;5.30;99.90;;;6.11;100.00;98984.16;5050443;28;20459;-77
2021/12/20 06:36:26;;;;;;;12.07;3.33;;;5.30;99.90;;;6.10;100.00;98986.91;5051148;28;20491;-78
2021/12/20 06:38:57;;;;;;;8.07;2.70;;;5.30;99.90;;;6.08;100.00;98987.84;5043589;28;20453;-78
2021/12/20 06:41:27;;;;;;;11.63;3.30;;;5.20;99.90;;;6.07;100.00;98988.78;5051402;28;20452;-77
2021/12/20 06:43:57;;;;;;;7.03;2.23;;;5.30;99.90;;;6.02;100.00;98984.97;5051318;28;20441;-78
2021/12/20 06:46:27;;;;;;;23.10;3.40;;;5.30;99.90;;;5.97;100.00;98985.38;5058388;28;21001;-78
2021/12/20 06:48:56;;;;;;;13.37;2.70;;;5.20;99.90;;;5.99;100.00;98990.44;5052314;28;20445;-77
2021/12/20 06:51:26;;;;;;;12.43;2.87;;;5.20;99.90;;;6.00;100.00;98997.28;5047808;28;20447;-78
2021/12/20 06:53:58;;;;;;;11.03;3.07;;;5.30;99.90;;;5.99;100.00;98996.44;5046895;28;20499;-78
2021/12/20 06:56:29;;;;;;;5.63;2.00;;;5.30;99.90;;;5.99;100.00;98990.44;5053578;28;20496;-77
2021/12/20 06:58:59;;;;;;;7.90;2.47;;;5.30;99.90;;;5.99;100.00;98993.03;5050752;28;20487;-77
2021/12/20 07:01:29;;;;;;;13.57;3.10;;;5.30;99.90;;;5.97;100.00;98987.97;5050774;28;20465;-78
2021/12/20 07:04:02;;;;;;;8.70;2.20;;;5.30;99.90;;;5.97;100.00;98998.34;5052196;28;20483;-78
2021/12/20 07:06:33;;;;;;;7.97;3.20;;;5.30;99.90;;;5.98;100.00;98993.97;5051040;28;20491;-78
2021/12/20 07:09:06;;;;;;;4.00;2.17;;;5.30;99.90;;;5.89;100.00;98993.03;5053757;28;20468;-78
2021/12/20 07:11:36;;;;;;;9.30;3.20;;;5.10;99.90;;;5.94;100.00;98992.59;5045710;28;20460;-78
2021/12/20 07:14:06;;;;;;;7.43;2.80;;;5.10;99.90;;;5.90;100.00;98991.25;5049339;28;20496;-77
2021/12/20 07:16:36;;;;;;;6.23;2.43;;;5.30;99.90;;;5.91;100.00;98990.28;5050778;28;21047;-78
2021/12/20 07:19:06;;;;;;;6.07;2.53;;;5.20;99.90;;;5.88;100.00;98993.97;5044696;28;20460;-78
2021/12/20 07:21:36;;;;;;;5.63;2.57;;;5.10;99.90;;;5.89;100.00;99000.00;5050802;28;20441;-78
2021/12/20 07:24:09;;;;;;;7.63;2.40;;;5.10;99.90;;;5.88;100.00;99000.94;5050520;28;20819;-78
2021/12/20 07:26:41;;;;;;;7.23;2.67;;;5.10;99.90;;;5.84;100.00;98997.75;5045497;28;20468;-78
2021/12/20 07:29:11;;;;;;;5.13;2.63;;;5.10;99.90;;;5.84;100.00;99002.13;5048330;28;20449;-78
2021/12/20 07:31:41;;;;;;;7.17;3.20;;;5.20;99.90;;;5.82;100.00;99004.03;5053923;28;20944;-78
2021/12/20 07:34:12;;;;;;;5.10;2.93;;;5.20;99.90;;;5.84;100.00;99008.13;5050328;28;20452;-78
2021/12/20 07:36:42;;;;;;;7.73;2.50;;;5.20;99.90;;;5.85;100.00;99009.78;5054768;28;20498;-78
2021/12/20 07:39:14;;;;;;;11.20;2.60;;;5.10;99.90;;;5.84;100.00;99002.94;5046302;28;20446;-78
2021/12/20 07:41:54;;;;;;;10.90;3.00;;;5.20;99.90;;;5.85;100.00;99004.59;5050307;28;20468;-77
2021/12/20 07:44:25;;;;;;;11.83;2.87;;;5.10;99.90;;;5.80;100.00;99009.34;5044328;28;20465;-78
2021/12/20 07:46:55;;;;;;;15.20;3.60;;;5.00;99.90;;;5.85;100.00;99011.56;5048480;28;20499;-78
2021/12/20 07:49:25;;;;;;;5.80;3.43;;;5.10;99.90;;;5.87;100.00;99007.91;5049808;28;20456;-78
2021/12/20 07:51:56;;;;;;;13.10;3.43;;;5.20;99.90;;;5.87;100.00;99007.91;5054295;28;20995;-77
2021/12/20 07:54:27;;;;;;;7.27;3.37;;;5.10;99.90;;;5.86;100.00;99014.06;5057631;28;20448;-77
2021/12/20 07:56:59;;;;;;;13.50;4.20;;;5.10;99.90;;;5.85;100.00;99017.56;5050396;28;20590;-77
2021/12/20 07:59:31;;;;;;;7.53;3.40;;;5.10;99.90;;;5.88;100.00;99008.72;5053673;28;20492;-77
2021/12/20 08:02:03;;;;;;;10.47;3.00;;;5.10;99.90;;;5.93;100.00;99002.19;5059911;28;20441;-77
2021/12/20 08:04:33;;;;;;;10.53;3.60;;;5.20;99.90;;;5.89;100.00;99005.19;5052599;28;20861;-77
2021/12/20 08:07:05;;;;;;;3.80;3.07;;;5.20;99.90;;;5.93;100.00;99012.56;5053324;28;20464;-77
2021/12/20 08:09:36;;;;;;;23.37;4.50;;;5.20;99.90;;;5.93;100.00;99011.75;5053887;28;20475;-77
2021/12/20 08:12:06;;;;;;;9.00;3.37;;;5.30;99.90;;;5.96;100.00;99011.47;5053421;28;20460;-77
2021/12/20 08:14:39;;;;;;;9.73;3.23;;;5.30;99.90;;;6.00;100.00;99018.03;5054159;28;20477;-77
2021/12/20 08:17:19;;;;;;;13.83;3.60;;;5.30;99.90;;;5.99;100.00;99012.03;5054042;28;20484;-77
2021/12/20 08:19:49;;;;;;;10.07;3.93;;;5.30;99.90;;;5.99;100.00;99016.41;5045571;28;20450;-77
2021/12/20 08:22:24;;;;;;;9.03;3.60;;;5.20;99.90;;;5.96;100.00;99022.69;5059584;28;20453;-76
2021/12/20 08:24:59;;;;;;;21.23;4.20;;;5.30;99.90;;;5.92;100.00;99023.06;5048217;28;20495;-77
2021/12/20 08:27:29;;;;;;;9.67;3.40;;;5.20;99.90;;;5.88;100.00;99021.69;5053473;28;20440;-77
2021/12/20 08:29:58;;;;;;;6.70;3.30;;;5.20;99.90;;;5.92;100.00;99015.28;5053916;28;20502;-77
2021/12/20 08:32:29;;;;;;;10.30;3.53;;;5.30;99.90;;;5.84;100.00;99026.31;5052572;28;20532;-77
2021/12/20 08:34:58;;;;;;;8.80;3.40;;;5.20;99.90;;;5.90;100.00;99027.59;5053656;28;20456;-77
2021/12/20 08:37:28;;;;;;;15.53;3.80;;;5.30;99.90;;;5.91;100.00;99024.03;5052885;28;20500;-77
2021/12/20 08:39:59;;;;;;;10.30;3.83;;;5.20;99.90;;;5.94;100.00;99021.16;5052136;28;20441;-77
2021/12/20 08:42:30;;;;;;;12.10;3.93;;;5.20;99.90;;;5.98;100.00;99025.13;5053739;28;20517;-77
2021/12/20 08:45:00;;;;;;;13.03;3.60;;;5.40;99.90;;;5.98;100.00;99028.56;5053167;28;20453;-77
2021/12/20 08:47:32;;;;;;;12.80;4.80;;;5.30;99.90;;;6.03;100.00;99043.72;5046852;28;20441;-77
2021/12/20 08:50:05;;;;;;;17.00;4.57;;;5.30;99.90;;;6.07;100.00;99043.31;5051747;28;20475;-76
2021/12/20 08:52:35;;;;;;;12.60;4.50;;;5.40;99.90;;;6.11;100.00;99048.25;5053776;28;20449;-77
2021/12/20 08:55:09;;;;;;;10.27;4.10;;;5.40;99.90;;;6.14;100.00;99051.41;5047800;28;20870;-77
2021/12/20 08:57:40;;;;;;;8.73;4.00;;;5.50;99.90;;;6.18;100.00;99041.59;5055249;28;20491;-77
2021/12/20 09:00:14;;;;;;;9.73;3.60;;;5.50;99.90;;;6.19;100.00;99041.44;5051319;28;21512;-77
2021/12/20 09:02:43;;;;;;;13.60;4.63;;;5.50;99.90;;;6.20;100.00;99048.28;5048782;28;20996;-77
2021/12/20 09:05:14;;;;;;;20.23;4.90;;;5.50;99.90;;;6.22;100.00;99043.75;5044615;28;20473;-77
2021/12/20 09:07:44;;;;;;;8.10;3.87;;;5.50;99.90;;;6.25;100.00;99042.69;5054978;28;20493;-77
2021/12/20 09:10:17;;;;;;;12.17;5.20;;;5.60;99.90;;;6.25;100.00;99050.47;5052497;28;20453;-77
2021/12/20 09:12:47;;;;;;;16.47;5.40;;;5.60;99.90;;;6.22;100.00;99048.94;5050447;28;20958;-77
2021/12/20 09:15:19;;;;;;;8.00;4.10;;;5.60;99.90;;;6.24;100.00;99062.63;5052710;28;20465;-77
2021/12/20 09:17:53;;;;;;;15.63;4.90;;;5.50;99.90;;;6.27;100.00;99062.38;5052469;28;20492;-76
2021/12/20 09:20:26;;;;;;;6.17;3.33;;;5.60;99.90;;;6.28;100.00;99053.59;5050963;28;20480;-77
2021/12/20 09:23:03;;;;;;;14.83;3.47;;;5.60;99.90;;;6.32;100.00;99056.75;5055152;28;20453;-76
2021/12/20 09:25:40;;;;;;;6.73;3.50;;;5.60;99.90;;;6.33;100.00;99058.38;5052875;28;20456;-77
2021/12/20 09:28:12;;;;;;;8.13;3.60;;;5.60;99.90;;;6.32;100.00;99059.34;5039371;28;20541;-77
2021/12/20 09:30:45;;;;;;;7.80;3.57;;;5.70;99.90;;;6.32;100.00;99061.94;5053510;28;20962;-77
2021/12/20 09:33:15;;;;;;;11.70;3.33;;;5.70;99.90;;;6.30;100.00;99072.47;5052571;28;20479;-77
2021/12/20 09:35:46;;;;;;;8.40;3.70;;;5.70;99.90;;;6.32;100.00;99069.72;5049562;28;20875;-77
2021/12/20 09:38:18;;;;;;;9.60;4.10;;;5.70;99.90;;;6.30;100.00;99067.28;5045575;28;20591;-77
2021/12/20 09:41:13;;;;;;;7.33;2.80;;;5.80;99.90;;;6.27;100.00;99067.56;5050677;28;20465;-77
2021/12/20 09:43:48;;;;;;;9.60;3.77;;;5.80;99.90;;;6.28;100.00;99074.38;5052027;28;20461;-76
2021/12/20 09:46:21;;;;;;;8.30;2.90;;;5.80;99.90;;;6.25;100.00;99073.84;5051356;28;20476;-77
2021/12/20 09:48:51;;;;;;;7.90;2.60;;;5.80;99.90;;;6.24;100.00;99078.22;5051427;28;20532;-77
2021/12/20 09:51:21;;;;;;;9.53;3.23;;;5.80;99.90;;;6.27;100.00;99082.31;5049727;28;20451;-77
2021/12/20 09:53:51;;;;;;;4.30;1.93;;;5.80;99.90;;;6.27;100.00;99077.94;5052078;28;20453;-77
2021/12/20 09:56:25;;;;;;;14.80;3.10;;;5.80;99.90;;;6.27;100.00;99083.13;5054792;28;20447;-77
2021/12/20 09:58:59;;;;;;;10.27;2.33;;;5.80;99.90;;;6.27;100.00;99084.91;5050028;28;20555;-77
2021/12/20 10:01:31;;;;;;;16.37;2.90;;;5.80;99.90;;;6.25;100.00;99090.22;5053474;28;20441;-77
2021/12/20 10:04:02;;;;;;;9.57;2.63;;;5.80;99.90;;;6.23;100.00;99081.75;5050443;28;20485;-77
2021/12/20 10:06:33;;;;;;;12.27;2.63;;;5.80;99.90;;;6.19;100.00;99087.34;5050409;28;20953;-77
2021/12/20 10:09:11;;;;;;;6.97;2.10;;;5.80;99.90;;;6.18;100.00;99088.31;5046358;28;20514;-77
2021/12/20 10:11:44;;;;;;;12.70;2.60;;;5.70;99.90;;;6.19;100.00;99085.56;5049655;28;20971;-77
2021/12/20 10:14:19;;;;;;;13.00;2.60;;;5.70;99.90;;;6.19;100.00;99080.38;5050573;28;20523;-76
2021/12/20 10:17:05;;;;;;;11.67;2.43;;;5.80;99.90;;;6.19;100.00;99077.78;5051191;28;20452;-77
2021/12/20 10:19:35;;;;;;;12.33;2.30;;;5.80;99.90;;;6.22;100.00;99076.69;5039447;28;21052;-77
2021/12/20 10:22:29;;;;;;;10.67;3.17;;;5.80;99.90;;;6.21;100.00;99078.50;5053373;28;20460;-76
2021/12/20 10:24:59;;;;;;;11.27;2.77;;;5.80;99.90;;;6.15;100.00;99068.63;5044944;28;20939;-77
2021/12/20 10:27:36;;;;;;;10.40;1.90;;;5.80;99.90;;;6.17;100.00;99076.28;5049564;28;20464;-77
2021/12/20 10:30:28;;;;;;;4.23;1.70;;;5.80;99.90;;;6.19;100.00;99070.00;5050052;28;20445;-77
2021/12/20 10:32:59;;;;;;;14.30;3.13;;;5.80;99.90;;;6.21;100.00;99065.50;5049780;28;20456;-76
2021/12/20 10:35:36;;;;;;;8.27;2.50;;;5.80;99.90;;;6.22;100.00;99072.31;5048887;28;20449;-77
2021/12/20 10:38:21;;;;;;;12.33;2.07;;;5.80;99.90;;;6.25;100.00;99071.25;5049807;28;20514;-77
2021/12/20 10:40:52;;;;;;;16.17;2.07;;;5.80;99.90;;;6.29;100.00;99065.63;5048691;28;20500;-77
2021/12/20 10:43:28;;;;;;;8.93;2.27;;;5.80;99.90;;;6.32;100.00;99067.97;5049531;28;20869;-77
2021/12/20 10:45:58;;;;;;;9.87;2.40;;;5.90;99.90;;;6.32;100.00;99057.56;5046450;28;20484;-77
2021/12/20 10:48:46;;;;;;;14.93;2.10;;;5.90;99.90;;;6.33;100.00;99068.78;5052383;28;20438;-77
2021/12/20 10:51:22;;;;;;;11.93;2.80;;;5.90;99.90;;;6.33;100.00;99066.19;5049639;28;20444;-77
2021/12/20 10:54:01;;;;;;;7.93;2.80;;;5.90;99.90;;;6.31;100.00;99062.91;5048950;28;20449;-77